Time;durP1;ratioP1;P1;durP2;ratioP2;P2;SDS_P1;SDS_P2;PMS_P1;PMS_P2;Temp;Humidity;BMP_temperature;BMP_pressure;BME280_temperature;BME280_humidity;BME280_pressure;Samples;Min_cycle;Max_cycle;Signal;HPM_P1;HPM_P2
2022/08/23 00:02:09;;;;;;;10.30;9.60;;;15.80;88.50;;;15.51;76.19;97927.47;5047994;28;20463;-71
2022/08/23 00:04:42;;;;;;;9.63;8.83;;;15.80;88.80;;;15.44;76.34;97933.91;5050117;28;20561;-69
2022/08/23 00:07:13;;;;;;;11.03;9.03;;;15.80;89.10;;;15.37;76.89;97935.16;5052958;28;20454;-68
2022/08/23 00:09:40;;;;;;;10.43;9.53;;;15.80;89.30;;;15.28;77.40;97924.69;5050506;28;20947;-71
2022/08/23 00:12:14;;;;;;;11.00;10.00;;;15.60;90.10;;;15.23;77.67;97927.31;5089078;27;20951;-69
2022/08/23 00:14:45;;;;;;;11.30;10.40;;;15.60;90.30;;;15.14;78.09;97923.38;5050392;28;20467;-71
2022/08/23 00:17:13;;;;;;;9.60;8.70;;;15.50;90.50;;;15.13;78.61;97921.75;5047465;28;20456;-68
2022/08/23 00:19:42;;;;;;;10.27;9.47;;;15.50;90.70;;;15.05;79.04;97920.25;5052700;28;20454;-71
2022/08/23 00:22:11;;;;;;;10.67;9.97;;;15.40;91.00;;;15.04;78.75;97909.59;5049778;28;20648;-69
2022/08/23 00:24:39;;;;;;;12.37;10.47;;;15.40;91.30;;;15.01;79.34;97916.34;5064542;28;20874;-69
2022/08/23 00:27:11;;;;;;;10.67;9.83;;;15.40;91.30;;;14.90;79.81;97917.28;5056571;28;20458;-69
2022/08/23 00:29:42;;;;;;;10.20;9.37;;;15.30;91.70;;;14.83;80.10;97912.81;5097703;28;20462;-70
2022/08/23 00:32:17;;;;;;;11.30;10.33;;;15.30;91.80;;;14.88;79.79;97922.94;5058073;28;20509;-69
2022/08/23 00:34:45;;;;;;;11.30;10.40;;;15.20;92.10;;;14.87;80.24;97924.03;5051831;28;20462;-70
2022/08/23 00:37:13;;;;;;;10.10;9.27;;;15.20;92.20;;;14.89;80.24;97915.63;5046027;28;20537;-69
2022/08/23 00:39:41;;;;;;;11.00;10.00;;;15.20;92.40;;;14.77;80.64;97921.97;5052542;28;20459;-68
2022/08/23 00:47:42;;;;;;;10.80;9.90;;;15.10;92.50;;;14.59;80.86;97917.53;5058119;28;20553;-70
2022/08/23 00:50:22;;;;;;;10.63;9.80;;;15.00;92.60;;;14.60;81.57;97919.16;5056554;28;20522;-69
2022/08/23 00:52:59;;;;;;;11.20;10.40;;;14.90;92.80;;;14.54;81.90;97917.44;5047516;28;20485;-69
2022/08/23 00:55:28;;;;;;;11.00;10.10;;;14.90;93.30;;;14.42;81.64;97907.44;5056128;28;20458;-71
2022/08/23 00:57:56;;;;;;;11.47;10.60;;;14.90;93.30;;;14.52;81.47;97922.28;5053697;28;20446;-68
2022/08/23 01:00:24;;;;;;;12.10;11.20;;;14.90;93.40;;;14.40;81.70;97922.31;5052485;28;20798;-69
2022/08/23 01:02:53;;;;;;;11.60;10.70;;;14.80;93.30;;;14.33;82.27;97910.78;5058313;28;20449;-68
2022/08/23 01:05:25;;;;;;;12.40;10.53;;;14.80;93.60;;;14.38;82.42;97922.59;5050854;28;20453;-68
2022/08/23 01:07:56;;;;;;;10.40;9.60;;;14.80;93.90;;;14.29;82.70;97926.75;5050916;28;20459;-68
2022/08/23 01:10:30;;;;;;;11.63;10.30;;;14.70;93.70;;;14.21;82.59;97927.16;5055696;28;20475;-69
2022/08/23 01:13:03;;;;;;;11.30;10.30;;;14.70;93.80;;;14.16;83.29;97931.38;5082816;28;20475;-69
2022/08/23 01:15:38;;;;;;;12.17;11.20;;;14.60;94.00;;;14.13;83.40;97934.59;5053908;28;20463;-68
2022/08/23 01:18:08;;;;;;;11.07;10.17;;;14.50;94.20;;;14.11;83.37;97936.72;5052198;28;20463;-70
2022/08/23 01:20:43;;;;;;;11.80;10.80;;;14.60;94.50;;;14.10;83.31;97943.22;5056204;28;20588;-71
2022/08/23 01:23:29;;;;;;;10.97;10.07;;;14.50;94.70;;;14.10;83.16;97935.09;5067432;28;20468;-68
2022/08/23 01:25:57;;;;;;;10.60;9.70;;;14.50;94.70;;;14.08;83.76;97948.09;5080575;28;20452;-69
2022/08/23 01:28:24;;;;;;;12.40;11.40;;;14.50;94.80;;;13.96;84.48;97947.28;5076523;28;20488;-71
2022/08/23 01:30:52;;;;;;;11.40;10.53;;;14.40;95.50;;;13.95;84.32;97953.78;5066473;28;20540;-71
2022/08/23 01:33:20;;;;;;;11.60;10.37;;;14.40;95.50;;;13.94;84.56;97952.94;5067753;28;20479;-70
2022/08/23 01:35:52;;;;;;;11.13;10.30;;;14.30;96.00;;;13.91;85.21;97949.91;5063362;28;20460;-70
2022/08/23 01:38:19;;;;;;;12.10;10.93;;;14.30;96.60;;;13.83;85.25;97957.31;5053803;28;20983;-70
2022/08/23 01:40:49;;;;;;;11.90;11.10;;;14.30;96.50;;;13.55;85.40;97910.03;5052669;28;20461;-69
2022/08/23 01:43:20;;;;;;;12.00;11.17;;;14.30;96.80;;;13.75;85.50;97949.56;5058319;28;20465;-72
2022/08/23 01:45:50;;;;;;;11.73;10.53;;;14.20;96.60;;;13.71;86.18;97953.78;5055675;28;20491;-70
2022/08/23 01:48:18;;;;;;;12.50;11.50;;;14.10;96.90;;;13.63;86.20;97946.84;5053543;28;20466;-70
2022/08/23 01:50:46;;;;;;;12.23;11.30;;;14.10;97.20;;;13.64;86.53;97955.81;5057278;28;20461;-68
2022/08/23 01:53:14;;;;;;;12.27;11.17;;;14.10;97.30;;;13.68;86.42;97954.28;5063115;28;20487;-67
2022/08/23 01:55:43;;;;;;;13.03;11.87;;;14.10;97.90;;;13.71;86.21;97956.50;5063425;28;20460;-69
2022/08/23 01:58:12;;;;;;;11.97;10.70;;;14.10;97.70;;;13.35;86.55;97904.09;5052614;28;20457;-67
2022/08/23 02:00:43;;;;;;;12.83;11.83;;;14.10;97.70;;;13.55;87.11;97948.03;5060032;28;20453;-68
2022/08/23 02:03:11;;;;;;;13.20;12.20;;;14.00;98.00;;;13.63;86.81;97954.16;5059558;28;20478;-69
2022/08/23 02:05:39;;;;;;;12.30;11.30;;;14.00;98.50;;;13.57;86.74;97954.06;5047883;28;20458;-71
2022/08/23 02:10:53;;;;;;;13.73;12.63;;;14.00;98.80;;;13.56;87.24;97949.66;5055460;28;20452;-69
2022/08/23 02:13:23;;;;;;;14.07;12.87;;;14.00;98.60;;;13.55;87.31;97958.06;5058760;28;20473;-69
2022/08/23 02:15:51;;;;;;;13.20;11.97;;;14.00;98.70;;;13.54;87.42;97957.22;5054114;28;20871;-69
2022/08/23 02:18:20;;;;;;;14.10;12.80;;;14.00;99.30;;;13.48;87.76;97943.78;5052106;28;20467;-68
2022/08/23 02:20:51;;;;;;;12.03;11.23;;;14.00;99.50;;;13.20;87.58;97901.88;5055338;28;20556;-70
2022/08/23 02:23:21;;;;;;;12.10;11.10;;;14.00;99.30;;;13.48;87.98;97969.03;5056778;28;20460;-69
2022/08/23 02:25:49;;;;;;;12.93;11.73;;;13.90;99.20;;;13.48;87.84;97960.91;5088443;28;20454;-69
2022/08/23 02:28:16;;;;;;;12.17;11.17;;;13.80;99.90;;;13.42;88.08;97965.34;5059495;28;20509;-69
2022/08/23 02:30:46;;;;;;;12.80;11.80;;;13.80;99.90;;;13.43;88.25;97958.88;5053809;28;20458;-70
2022/08/23 02:33:14;;;;;;;13.67;12.30;;;13.70;99.90;;;13.50;87.55;97966.91;5052898;28;21012;-68
2022/08/23 02:35:42;;;;;;;13.63;12.30;;;13.80;99.90;;;13.38;88.46;97966.03;5050704;28;20518;-70
2022/08/23 02:38:11;;;;;;;12.83;11.77;;;13.80;99.90;;;13.37;88.43;97972.53;5061665;28;20481;-68
2022/08/23 02:40:41;;;;;;;13.97;12.77;;;13.80;99.90;;;13.27;88.39;97935.97;5052230;28;20976;-68
2022/08/23 02:43:09;;;;;;;14.03;12.83;;;13.80;99.90;;;13.37;88.34;97959.81;5054802;28;21406;-71
2022/08/23 02:45:37;;;;;;;12.80;11.60;;;13.70;99.90;;;13.44;88.31;97963.25;5057259;28;20473;-69
2022/08/23 02:48:07;;;;;;;12.87;11.77;;;13.70;99.90;;;13.32;88.70;97965.09;5059587;28;20449;-68
2022/08/23 02:50:35;;;;;;;13.20;12.20;;;13.70;99.90;;;13.39;87.99;97959.56;5052827;28;20459;-68
2022/08/23 02:53:03;;;;;;;12.20;11.13;;;13.70;99.90;;;13.40;88.00;97958.50;5060918;28;20472;-70
2022/08/23 02:55:30;;;;;;;13.57;12.23;;;13.70;99.90;;;13.39;88.31;97964.97;5056858;28;20473;-69
2022/08/23 02:57:58;;;;;;;13.17;12.10;;;13.70;99.90;;;13.23;88.72;97948.34;5054078;28;20467;-69
2022/08/23 03:00:26;;;;;;;12.40;11.30;;;13.70;99.90;;;13.25;88.50;97953.53;5054450;28;20468;-69
2022/08/23 03:02:53;;;;;;;12.77;11.57;;;13.60;99.90;;;13.16;89.05;97947.63;5057726;28;20445;-70
2022/08/23 03:05:22;;;;;;;12.87;11.77;;;13.50;99.90;;;13.08;89.69;97937.13;5050814;28;20463;-70
2022/08/23 03:07:50;;;;;;;12.60;11.70;;;13.50;99.90;;;13.11;89.68;97956.47;5058378;28;20452;-71
2022/08/23 03:10:17;;;;;;;13.37;12.07;;;13.50;99.90;;;13.08;89.83;97956.09;5067423;28;20453;-72
2022/08/23 03:12:45;;;;;;;13.80;12.60;;;13.50;99.90;;;12.72;89.88;97910.75;5056088;28;20532;-70
2022/08/23 03:15:12;;;;;;;14.30;13.00;;;13.50;99.90;;;13.07;89.65;97968.00;5049940;28;20476;-70
2022/08/23 03:17:39;;;;;;;15.93;14.50;;;13.50;99.90;;;12.97;89.61;97953.16;5053511;28;20458;-70
2022/08/23 03:20:09;;;;;;;12.40;11.50;;;13.50;99.90;;;13.08;89.67;97969.66;5048640;28;20510;-68
2022/08/23 03:22:37;;;;;;;14.97;13.40;;;13.50;99.90;;;12.95;90.02;97971.50;5052078;28;20468;-69
2022/08/23 03:25:06;;;;;;;14.63;13.33;;;13.50;99.90;;;12.86;90.42;97970.22;5051578;28;20991;-69
2022/08/23 03:27:35;;;;;;;15.53;14.27;;;13.40;99.90;;;12.84;90.55;97964.19;5051578;28;20460;-68
2022/08/23 03:30:02;;;;;;;14.00;12.33;;;13.30;99.90;;;12.74;90.70;97960.16;5053120;28;20457;-69
2022/08/23 03:32:30;;;;;;;13.37;12.07;;;13.30;99.90;;;12.78;90.45;97971.38;5055070;28;20500;-69
2022/08/23 03:34:57;;;;;;;15.00;13.63;;;13.30;99.90;;;12.37;90.67;97913.34;5055022;28;20975;-69
2022/08/23 03:37:24;;;;;;;14.13;12.93;;;13.20;99.90;;;12.64;90.73;97967.19;5060330;28;20456;-69
2022/08/23 03:39:53;;;;;;;14.67;13.43;;;13.20;99.90;;;12.64;90.69;97957.16;5057032;28;20824;-69
2022/08/23 03:42:20;;;;;;;13.13;12.23;;;13.10;99.90;;;12.68;90.89;97965.66;5062608;28;20987;-71
2022/08/23 03:44:48;;;;;;;14.93;13.63;;;13.10;99.90;;;12.57;91.45;97970.00;5067331;28;21037;-70
2022/08/23 03:47:16;;;;;;;15.17;13.87;;;13.00;99.90;;;12.60;91.28;97964.09;5051223;28;20571;-68
2022/08/23 03:49:43;;;;;;;14.83;13.67;;;13.00;99.90;;;12.58;91.23;97960.81;5047812;28;20471;-70
2022/08/23 03:52:12;;;;;;;14.97;13.90;;;13.00;99.90;;;12.52;91.47;97967.16;5053097;28;20878;-70
2022/08/23 03:54:39;;;;;;;13.60;12.50;;;13.00;99.90;;;12.63;91.26;97963.63;5052813;28;20461;-70
2022/08/23 03:57:09;;;;;;;14.80;13.37;;;13.00;99.90;;;12.57;91.23;97965.38;5053077;28;20456;-70
2022/08/23 03:59:40;;;;;;;15.23;13.83;;;13.00;99.90;;;12.58;91.39;97960.81;5055488;28;20468;-66
2022/08/23 04:02:07;;;;;;;15.70;14.30;;;13.00;99.90;;;12.60;91.65;97954.09;5050881;28;20444;-69
2022/08/23 04:04:36;;;;;;;16.50;14.87;;;13.00;99.90;;;12.56;91.70;97960.22;5054481;28;20458;-68
2022/08/23 04:07:03;;;;;;;14.53;13.33;;;13.00;99.90;;;12.47;91.86;97970.53;5045508;28;20465;-70
2022/08/23 04:09:30;;;;;;;16.10;14.80;;;13.00;99.90;;;12.52;91.83;97969.88;5055076;28;20960;-69
2022/08/23 04:11:58;;;;;;;14.90;13.80;;;13.00;99.90;;;12.53;91.56;97964.19;5055778;28;21936;-70
2022/08/23 04:14:26;;;;;;;16.10;14.57;;;13.00;99.90;;;12.46;91.46;97964.28;5049006;28;20476;-69
2022/08/23 04:16:54;;;;;;;13.70;12.50;;;13.00;99.90;;;12.52;91.80;97967.16;5054072;28;20457;-71
2022/08/23 04:19:21;;;;;;;15.70;14.30;;;13.00;99.90;;;12.43;91.43;97969.31;5052858;28;20488;-71
2022/08/23 04:21:52;;;;;;;15.27;14.07;;;12.90;99.90;;;12.33;92.07;97967.16;5052949;28;21056;-70
2022/08/23 04:24:19;;;;;;;15.23;14.03;;;12.90;99.90;;;12.38;91.82;97967.31;5087972;28;20480;-69
2022/08/23 04:26:48;;;;;;;14.30;13.13;;;12.90;99.90;;;12.49;91.20;97967.59;5054731;28;20462;-69
2022/08/23 04:29:16;;;;;;;14.20;13.10;;;12.90;99.90;;;12.44;91.56;97976.44;5051952;28;20582;-69
2022/08/23 04:31:45;;;;;;;15.63;14.13;;;12.90;99.90;;;12.26;92.38;97972.66;5062082;28;20470;-70
2022/08/23 04:34:13;;;;;;;16.20;14.90;;;12.80;99.90;;;12.39;91.88;97978.97;5049516;28;20811;-70
2022/08/23 04:36:43;;;;;;;14.47;13.27;;;12.90;99.90;;;12.52;91.07;97973.38;5061583;28;20962;-69
2022/08/23 04:39:10;;;;;;;15.03;13.90;;;13.00;99.90;;;12.61;90.54;97984.72;5056358;28;20924;-69
2022/08/23 04:44:23;;;;;;;14.50;13.30;;;13.40;99.40;;;12.86;88.40;97989.19;5055245;28;20483;-70
2022/08/23 04:46:51;;;;;;;13.80;12.73;;;13.50;97.90;;;13.10;87.12;98002.78;5058419;28;20457;-69
2022/08/23 04:49:21;;;;;;;12.10;11.10;;;13.60;96.40;;;13.39;85.28;97997.53;5053515;28;20544;-70
2022/08/23 04:51:49;;;;;;;12.90;11.70;;;14.00;94.20;;;13.39;85.02;98011.94;5056881;28;20485;-71
2022/08/23 04:54:16;;;;;;;12.73;11.67;;;14.00;93.50;;;13.54;84.29;98008.78;5055986;28;20484;-69
2022/08/23 04:56:44;;;;;;;13.20;12.00;;;14.20;93.10;;;13.63;83.35;98019.31;5065754;28;20462;-68
2022/08/23 04:59:11;;;;;;;14.00;12.90;;;14.30;92.50;;;13.48;83.81;98017.03;5055471;28;20464;-68
2022/08/23 05:01:39;;;;;;;12.53;11.60;;;14.30;92.40;;;13.86;82.44;98019.31;5058242;28;20459;-70
2022/08/23 05:04:08;;;;;;;11.13;10.23;;;14.50;91.90;;;13.98;81.36;98023.91;5056148;28;20474;-68
2022/08/23 05:06:35;;;;;;;11.67;10.70;;;14.80;90.80;;;14.23;80.23;98034.50;5065357;28;20460;-69
2022/08/23 05:09:03;;;;;;;12.00;11.00;;;15.00;90.20;;;14.51;79.08;98029.38;5066217;28;20551;-69
2022/08/23 05:11:30;;;;;;;11.00;10.00;;;15.20;89.10;;;14.92;77.01;98024.75;5065520;28;20457;-69
2022/08/23 05:13:58;;;;;;;10.57;9.67;;;15.70;87.50;;;15.58;74.93;98032.44;5066327;28;20473;-70
2022/08/23 05:16:25;;;;;;;10.93;10.03;;;16.30;86.40;;;15.77;73.51;98034.88;5064273;28;20445;-69
2022/08/23 05:18:52;;;;;;;11.60;10.40;;;16.60;84.70;;;15.91;72.47;98034.56;5061814;28;20454;-70
2022/08/23 05:21:24;;;;;;;9.20;8.40;;;16.80;83.60;;;15.95;71.94;98041.16;5068955;28;20506;-68
2022/08/23 05:23:51;;;;;;;9.83;9.03;;;16.90;83.00;;;16.47;69.51;98042.69;5061088;28;20470;-70
2022/08/23 05:26:19;;;;;;;10.73;9.17;;;17.50;81.80;;;16.25;69.82;98032.59;5057818;28;20468;-68
2022/08/23 05:28:49;;;;;;;10.40;9.13;;;17.50;81.10;;;16.38;69.91;98044.22;5069853;28;20500;-70
2022/08/23 05:31:20;;;;;;;9.70;8.80;;;17.50;81.20;;;16.52;69.81;98048.19;5056722;28;20469;-68
2022/08/23 05:33:49;;;;;;;10.40;9.27;;;17.50;81.10;;;16.35;69.62;98041.97;5062843;28;20486;-70
2022/08/23 05:36:18;;;;;;;10.43;8.60;;;17.60;80.70;;;16.94;68.03;98041.34;5064612;28;20450;-69
2022/08/23 05:38:48;;;;;;;9.07;8.17;;;17.90;80.40;;;16.65;68.18;98052.47;5062149;28;20456;-69
2022/08/23 05:41:18;;;;;;;9.03;8.33;;;17.70;80.00;;;16.27;69.68;98043.25;5057665;28;20464;-70
2022/08/23 05:43:46;;;;;;;9.90;8.80;;;17.50;80.40;;;16.01;70.38;98051.09;5063366;28;20519;-68
2022/08/23 05:46:16;;;;;;;9.57;8.70;;;17.20;80.60;;;16.57;68.91;98055.63;5058608;28;20463;-70
2022/08/23 05:48:47;;;;;;;9.07;8.37;;;17.40;80.90;;;17.07;66.72;98055.69;5059012;28;20457;-69
2022/08/23 05:51:17;;;;;;;9.80;9.00;;;18.00;79.70;;;15.80;71.25;98056.19;5054211;28;20687;-70
2022/08/23 05:53:51;;;;;;;9.87;8.97;;;17.20;80.40;;;15.13;73.97;98049.63;5056092;28;20479;-71
2022/08/23 05:56:22;;;;;;;9.60;8.90;;;16.30;82.10;;;14.83;75.29;98054.22;5056331;28;20483;-70
2022/08/23 05:58:53;;;;;;;10.37;9.57;;;15.70;84.00;;;15.10;75.28;98052.84;5057448;28;20462;-72
2022/08/23 06:01:21;;;;;;;9.40;8.70;;;15.50;85.60;;;14.97;75.88;98049.34;5055496;28;20467;-76
2022/08/23 06:03:49;;;;;;;10.13;9.00;;;15.40;86.10;;;14.81;75.74;98001.16;5057039;28;20455;-73
2022/08/23 06:06:18;;;;;;;12.10;9.70;;;15.50;86.70;;;14.93;76.20;98053.59;5058219;28;21165;-72
2022/08/23 06:08:48;;;;;;;10.10;9.20;;;15.40;86.90;;;15.07;76.41;98059.59;5056635;28;20465;-68
2022/08/23 06:11:20;;;;;;;10.00;9.20;;;15.50;87.40;;;15.15;75.85;98061.09;5056115;28;20455;-69
2022/08/23 06:13:49;;;;;;;10.23;9.23;;;15.50;87.40;;;15.42;74.70;98068.63;5057106;28;20486;-69
2022/08/23 06:16:20;;;;;;;11.20;10.10;;;15.70;87.00;;;15.61;74.21;98062.94;5048409;28;20489;-69
2022/08/23 06:18:48;;;;;;;10.87;10.00;;;15.90;86.50;;;15.75;74.52;98058.00;5056432;28;20466;-68
2022/08/23 06:21:16;;;;;;;11.30;10.20;;;16.00;87.00;;;16.15;72.84;98057.00;5051923;28;20507;-74
2022/08/23 06:23:45;;;;;;;12.50;10.37;;;16.30;86.30;;;16.26;71.26;98063.41;5053135;28;22954;-76
2022/08/23 06:26:16;;;;;;;13.60;10.70;;;16.50;84.80;;;16.50;71.34;98065.91;5053518;28;20461;-72
2022/08/23 06:28:47;;;;;;;12.47;10.30;;;16.60;84.80;;;16.34;71.08;98070.31;5063105;28;20460;-74
2022/08/23 06:31:14;;;;;;;11.73;10.73;;;16.70;84.30;;;16.35;71.50;98067.34;5054917;28;20509;-74
2022/08/23 06:33:42;;;;;;;11.13;10.00;;;16.70;84.30;;;16.69;71.01;98072.69;5053500;28;20476;-71
2022/08/23 06:36:12;;;;;;;11.97;10.97;;;16.90;85.10;;;17.22;69.90;98074.94;5055667;28;20965;-71
2022/08/23 06:38:41;;;;;;;11.40;10.20;;;17.30;84.80;;;17.39;68.57;98074.03;5053719;28;20551;-74
2022/08/23 06:41:13;;;;;;;10.47;9.37;;;17.60;84.20;;;17.33;67.78;98070.41;5056756;28;20465;-72
2022/08/23 06:43:41;;;;;;;12.70;10.20;;;17.60;82.80;;;16.95;69.04;98064.81;5088423;28;20960;-71
2022/08/23 06:46:10;;;;;;;10.40;9.60;;;17.40;82.60;;;16.86;69.15;98077.25;5054468;28;20483;-72
2022/08/23 06:48:38;;;;;;;13.33;9.50;;;17.30;82.90;;;16.83;69.13;98032.22;5056515;28;20463;-70
2022/08/23 06:51:11;;;;;;;10.83;9.87;;;17.30;83.10;;;17.18;68.11;98073.78;5091543;28;20466;-72
2022/08/23 06:53:39;;;;;;;18.47;10.00;;;17.40;82.80;;;17.24;68.03;98067.31;5055828;28;20487;-73
2022/08/23 06:56:07;;;;;;;10.93;9.80;;;17.50;82.60;;;17.23;67.74;98071.13;5051371;28;20470;-72
2022/08/23 06:58:36;;;;;;;10.43;9.43;;;17.50;82.50;;;17.20;67.84;98066.16;5056483;28;20488;-79
2022/08/23 07:01:20;;;;;;;10.30;9.30;;;17.50;82.30;;;17.37;67.39;98076.19;5052338;28;20458;-72
2022/08/23 07:03:48;;;;;;;9.10;8.40;;;17.60;82.30;;;17.39;67.53;98079.47;5057315;28;20474;-72
2022/08/23 07:06:15;;;;;;;10.27;9.33;;;17.70;82.30;;;17.37;67.26;98065.25;5078785;28;20475;-72
2022/08/23 07:08:42;;;;;;;10.50;9.60;;;17.70;82.10;;;17.56;67.26;98074.72;5059504;28;20865;-72
2022/08/23 07:11:10;;;;;;;12.43;8.80;;;17.80;82.10;;;17.80;66.60;98071.63;5054712;28;20480;-74
2022/08/23 07:13:38;;;;;;;10.20;8.30;;;17.90;82.10;;;18.01;65.85;98077.25;5053373;28;20476;-73
2022/08/23 07:16:06;;;;;;;13.60;9.23;;;18.10;81.80;;;18.14;64.70;98083.38;5053590;28;20452;-73
2022/08/23 07:18:33;;;;;;;8.90;8.13;;;18.30;81.20;;;18.24;64.13;98083.44;5053987;28;20461;-72
2022/08/23 07:21:04;;;;;;;9.10;8.17;;;18.40;80.80;;;18.07;63.79;98059.00;5051629;28;20467;-74
2022/08/23 07:23:33;;;;;;;7.80;7.20;;;18.40;80.50;;;18.31;64.14;98078.56;5055044;28;20457;-74
2022/08/23 07:26:01;;;;;;;8.43;7.50;;;18.50;80.70;;;18.48;63.67;98088.50;5048506;28;20983;-73
2022/08/23 07:28:30;;;;;;;7.13;6.63;;;18.60;80.40;;;18.59;62.96;98084.72;5049989;28;20463;-72
2022/08/23 07:31:09;;;;;;;8.47;7.77;;;18.70;79.90;;;18.66;62.79;98079.81;5080885;28;20956;-73
2022/08/23 07:33:36;;;;;;;8.50;7.70;;;18.80;79.70;;;18.60;62.88;98089.09;5052487;28;20475;-74
2022/08/23 07:36:05;;;;;;;9.23;8.23;;;18.80;79.50;;;18.33;63.47;98053.66;5081188;28;20461;-73
2022/08/23 07:38:34;;;;;;;7.97;7.20;;;18.80;79.90;;;18.79;62.82;98091.38;5052819;28;20464;-74
2022/08/23 07:41:02;;;;;;;7.73;7.00;;;18.90;79.60;;;18.94;61.13;98090.59;5050639;28;21292;-77
2022/08/23 07:43:30;;;;;;;6.90;6.30;;;19.10;78.70;;;18.96;61.90;98097.44;5054002;28;20567;-73
2022/08/23 07:45:59;;;;;;;6.60;5.90;;;19.20;78.90;;;18.82;61.62;98060.72;5082794;28;20469;-74
2022/08/23 07:48:27;;;;;;;8.00;7.20;;;19.20;78.70;;;19.20;60.69;98093.44;5053692;28;20469;-74
2022/08/23 07:50:56;;;;;;;6.77;6.17;;;19.30;78.40;;;19.41;59.60;98094.31;5052571;28;20458;-73
2022/08/23 07:53:23;;;;;;;6.70;6.10;;;19.50;77.80;;;19.45;60.03;98084.44;5056831;28;20463;-79
2022/08/23 07:55:51;;;;;;;7.20;5.43;;;19.60;77.90;;;19.61;60.20;98088.03;5049002;28;20497;-72
2022/08/23 07:58:19;;;;;;;6.60;6.00;;;19.70;78.10;;;19.88;59.21;98088.84;5056996;28;20463;-72
2022/08/23 08:00:46;;;;;;;10.13;6.47;;;19.90;77.60;;;19.75;59.11;98088.28;5048763;28;20507;-70
2022/08/23 08:03:16;;;;;;;10.03;5.73;;;20.00;77.10;;;19.71;59.62;98087.22;5052759;28;20463;-78
2022/08/23 08:05:43;;;;;;;7.40;6.40;;;20.00;77.50;;;19.48;60.23;98067.44;5050204;28;20806;-71
2022/08/23 08:08:11;;;;;;;8.00;7.20;;;20.00;77.60;;;19.51;60.80;98110.75;5055920;28;20564;-71
2022/08/23 08:10:40;;;;;;;11.23;6.50;;;19.90;77.80;;;19.82;60.44;98099.81;5053924;28;20541;-69
2022/08/23 08:13:09;;;;;;;5.93;5.43;;;20.00;78.10;;;19.98;59.96;98091.63;5049448;28;20455;-71
2022/08/23 08:15:41;;;;;;;6.83;6.30;;;20.10;77.70;;;19.89;59.92;98101.44;5046529;28;20541;-66
2022/08/23 08:18:09;;;;;;;5.20;4.80;;;20.10;77.40;;;19.86;59.83;98099.28;5080044;28;20838;-65
2022/08/23 08:20:43;;;;;;;6.60;6.00;;;20.10;77.30;;;19.90;59.45;98095.72;5053704;28;20468;-68
2022/08/23 08:23:10;;;;;;;6.07;5.67;;;20.10;76.90;;;20.09;59.02;98095.16;5057158;28;20453;-68
2022/08/23 08:25:37;;;;;;;10.80;8.10;;;20.30;77.00;;;20.44;58.25;98089.91;5055788;28;20464;-67
2022/08/23 08:28:05;;;;;;;6.03;5.53;;;20.50;77.00;;;20.56;57.27;98103.31;5085731;28;20464;-71
2022/08/23 08:30:32;;;;;;;6.30;5.10;;;20.60;75.90;;;20.47;57.08;98097.56;5060743;28;20484;-71
2022/08/23 08:32:59;;;;;;;5.97;5.50;;;20.60;75.50;;;20.55;56.40;98107.97;5058222;28;20806;-71
2022/08/23 08:35:27;;;;;;;5.43;5.03;;;20.70;74.90;;;20.77;56.21;98102.13;5056177;28;20484;-69
2022/08/23 08:37:55;;;;;;;5.60;5.10;;;20.80;75.00;;;20.84;55.86;98101.84;5049970;28;20988;-69
2022/08/23 08:40:31;;;;;;;5.93;5.43;;;20.90;74.90;;;20.73;56.06;98081.03;5056221;28;20478;-70
2022/08/23 08:43:23;;;;;;;5.47;4.97;;;21.00;74.90;;;20.84;55.64;98107.34;5051506;28;20468;-76
2022/08/23 08:46:03;;;;;;;5.70;5.20;;;21.00;74.20;;;20.69;55.55;98110.94;5057717;28;20488;-70
2022/08/23 08:48:40;;;;;;;5.60;5.00;;;20.90;73.90;;;20.87;54.11;98106.81;5084737;28;21579;-71
2022/08/23 08:51:34;;;;;;;8.73;4.20;;;21.10;73.10;;;21.01;52.15;98112.50;5054012;28;20489;-72
2022/08/23 08:54:07;;;;;;;3.53;3.23;;;21.10;71.30;;;21.22;50.10;98106.88;5049787;28;20472;-73
2022/08/23 08:56:39;;;;;;;5.40;3.37;;;21.30;69.00;;;21.07;48.52;98110.53;5053981;28;20541;-80
2022/08/23 08:59:11;;;;;;;4.00;3.40;;;21.30;66.80;;;21.03;49.13;98101.25;5054997;28;20478;-75
2022/08/23 09:01:39;;;;;;;6.13;3.23;;;21.20;67.30;;;21.31;48.70;98112.63;5054210;28;20466;-71
2022/08/23 09:04:07;;;;;;;4.07;3.37;;;21.40;66.80;;;21.00;48.68;98066.91;5058322;28;20513;-72
2022/08/23 09:06:51;;;;;;;3.27;2.97;;;21.40;66.80;;;21.40;47.45;98118.34;5056608;28;20521;-75
2022/08/23 09:09:46;;;;;;;4.23;2.53;;;21.50;65.20;;;21.18;46.38;98109.41;5055058;28;20550;-70
2022/08/23 09:12:24;;;;;;;3.00;2.70;;;21.50;63.10;;;21.54;45.56;98102.03;5055746;28;20448;-71
2022/08/23 09:15:12;;;;;;;4.07;2.80;;;21.50;62.50;;;21.74;45.20;98101.88;5053722;28;20469;-72
2022/08/23 09:17:43;;;;;;;4.30;2.47;;;21.70;63.00;;;21.65;44.98;98111.84;5057040;28;20470;-73
2022/08/23 09:20:16;;;;;;;4.73;3.17;;;21.80;61.60;;;21.64;45.00;98096.47;5056689;28;20463;-75
2022/08/23 09:22:48;;;;;;;2.73;2.20;;;21.80;61.50;;;21.71;44.05;98094.22;5048866;28;20444;-73
2022/08/23 09:25:20;;;;;;;2.77;2.20;;;21.90;60.50;;;21.58;43.68;98083.84;5048822;28;21195;-79
2022/08/23 09:27:47;;;;;;;2.60;2.40;;;21.90;59.80;;;21.67;43.77;98106.91;5055645;28;20932;-72
2022/08/23 09:30:19;;;;;;;2.27;1.93;;;21.80;59.50;;;21.79;43.14;98104.63;5050247;28;20492;-70
2022/08/23 09:32:49;;;;;;;3.93;2.13;;;21.90;59.20;;;21.93;43.81;98117.72;5061511;28;20466;-70
2022/08/23 09:35:19;;;;;;;2.87;2.10;;;22.00;59.50;;;21.98;43.56;98101.16;5049476;28;20574;-77
2022/08/23 09:37:55;;;;;;;7.23;2.33;;;22.10;59.00;;;21.96;43.74;98095.13;5052391;28;20533;-71
2022/08/23 09:40:35;;;;;;;2.40;2.20;;;22.10;59.20;;;21.91;44.37;98101.50;5053326;28;20452;-76
2022/08/23 09:43:11;;;;;;;4.00;2.13;;;22.10;59.30;;;22.05;43.43;98087.88;5056009;28;20464;-75
2022/08/23 09:45:43;;;;;;;3.03;2.27;;;22.20;58.80;;;22.12;43.02;98095.78;5053118;28;21032;-76
2022/08/23 09:48:15;;;;;;;2.50;2.20;;;22.30;58.40;;;22.24;43.12;98078.91;5060822;28;20480;-70
2022/08/23 09:50:53;;;;;;;2.30;2.10;;;22.30;58.70;;;22.34;43.02;98087.03;5052990;28;20580;-75
2022/08/23 09:53:26;;;;;;;3.90;2.20;;;22.40;58.60;;;22.35;42.46;98083.19;5062276;28;20456;-70
2022/08/23 09:55:59;;;;;;;2.47;2.23;;;22.50;58.00;;;22.41;42.33;98080.38;5058224;28;20483;-75
2022/08/23 09:58:34;;;;;;;4.60;2.27;;;22.60;57.80;;;22.32;42.76;98072.75;5063778;28;20460;-71
2022/08/23 10:01:12;;;;;;;2.03;1.93;;;22.50;58.00;;;22.25;42.78;98058.53;5059884;28;20471;-72
2022/08/23 10:03:41;;;;;;;2.30;1.97;;;22.50;58.00;;;22.71;42.08;98083.94;5065787;28;20550;-73
2022/08/23 10:06:14;;;;;;;2.33;2.13;;;22.70;57.70;;;22.76;40.89;98075.59;5054717;28;20458;-70
2022/08/23 10:08:54;;;;;;;2.37;2.17;;;22.80;56.60;;;22.88;40.86;98077.91;5060770;28;20479;-74
2022/08/23 10:11:26;;;;;;;1.90;1.80;;;22.90;56.40;;;22.82;40.85;98071.66;5069909;28;20461;-75
2022/08/23 10:13:53;;;;;;;2.03;1.70;;;23.00;56.20;;;22.98;40.54;98079.75;5091940;28;20465;-73
2022/08/23 10:16:32;;;;;;;1.90;1.70;;;23.10;56.20;;;22.89;38.89;98080.41;5057490;28;20482;-73
2022/08/23 10:19:12;;;;;;;2.93;1.87;;;23.00;54.50;;;22.98;39.34;98083.31;5060051;28;20464;-70
2022/08/23 10:21:46;;;;;;;2.00;1.80;;;23.00;54.60;;;22.83;39.75;98034.75;5057174;28;20462;-77
2022/08/23 10:24:30;;;;;;;2.20;1.80;;;23.20;54.80;;;23.25;39.72;98086.53;5064693;28;20458;-74
2022/08/23 10:30:08;;;;;;;2.50;2.30;;;23.40;55.00;;;23.53;41.23;98072.91;5058050;28;20453;-78
2022/08/23 10:32:52;;;;;;;2.80;2.43;;;23.60;56.80;;;23.28;41.15;98064.75;5059394;28;20453;-72
2022/08/23 10:35:31;;;;;;;2.10;1.90;;;23.50;56.30;;;23.33;39.29;98058.34;5088002;28;20489;-76
2022/08/23 10:38:36;;;;;;;3.13;1.80;;;23.50;54.40;;;23.44;39.88;98065.34;5062176;28;20455;-71
2022/08/23 10:41:25;;;;;;;1.80;1.70;;;23.50;54.90;;;23.59;38.67;98067.03;5057876;28;20491;-69